sensor_id;sensor_type;location;lat;lon;timestamp;pressure;altitude;pressure_sealevel;temperature;humidity
79085;BME280;68486;42.808;23.422;2023-05-31T00:00:12;94255.34;;;14.69;81.42
79085;BME280;68486;42.808;23.422;2023-05-31T00:02:38;94264.41;;;14.80;81.10
79085;BME280;68486;42.808;23.422;2023-05-31T00:05:03;94262.84;;;14.72;80.22
79085;BME280;68486;42.808;23.422;2023-05-31T00:07:29;94264.44;;;14.73;78.95
79085;BME280;68486;42.808;23.422;2023-05-31T00:09:54;94262.09;;;14.65;79.49
79085;BME280;68486;42.808;23.422;2023-05-31T00:12:20;94262.16;;;14.77;79.43
79085;BME280;68486;42.808;23.422;2023-05-31T00:14:46;94263.16;;;14.82;79.27
79085;BME280;68486;42.808;23.422;2023-05-31T00:17:12;94271.81;;;14.89;78.87
79085;BME280;68486;42.808;23.422;2023-05-31T00:19:38;94255.94;;;14.96;77.07
79085;BME280;68486;42.808;23.422;2023-05-31T00:22:04;94262.59;;;14.99;76.61
79085;BME280;68486;42.808;23.422;2023-05-31T00:24:31;94260.44;;;14.89;78.49
79085;BME280;68486;42.808;23.422;2023-05-31T00:26:56;94266.00;;;14.81;77.81
79085;BME280;68486;42.808;23.422;2023-05-31T00:29:21;94267.13;;;14.92;77.70
79085;BME280;68486;42.808;23.422;2023-05-31T00:31:47;94255.81;;;14.84;78.05
79085;BME280;68486;42.808;23.422;2023-05-31T00:34:12;94267.94;;;14.92;77.36
79085;BME280;68486;42.808;23.422;2023-05-31T00:36:38;94269.16;;;14.89;77.96
79085;BME280;68486;42.808;23.422;2023-05-31T00:39:03;94271.06;;;14.82;78.68
79085;BME280;68486;42.808;23.422;2023-05-31T00:41:28;94270.75;;;14.72;79.12
79085;BME280;68486;42.808;23.422;2023-05-31T00:43:54;94269.28;;;14.76;79.29
79085;BME280;68486;42.808;23.422;2023-05-31T00:46:26;94261.22;;;14.71;79.15
79085;BME280;68486;42.808;23.422;2023-05-31T00:48:54;94264.81;;;14.77;79.53
79085;BME280;68486;42.808;23.422;2023-05-31T00:51:19;94264.75;;;14.83;78.67
79085;BME280;68486;42.808;23.422;2023-05-31T00:53:45;94265.25;;;14.74;78.77
79085;BME280;68486;42.808;23.422;2023-05-31T00:56:12;94222.88;;;14.50;78.90
79085;BME280;68486;42.808;23.422;2023-05-31T00:58:40;94264.50;;;14.67;80.05
79085;BME280;68486;42.808;23.422;2023-05-31T01:01:07;94238.78;;;14.62;79.24
79085;BME280;68486;42.808;23.422;2023-05-31T01:03:34;94251.53;;;14.65;79.35
79085;BME280;68486;42.808;23.422;2023-05-31T01:05:59;94259.28;;;14.60;80.38
79085;BME280;68486;42.808;23.422;2023-05-31T01:08:26;94258.03;;;14.62;80.35
79085;BME280;68486;42.808;23.422;2023-05-31T01:10:53;94261.50;;;14.63;78.85
79085;BME280;68486;42.808;23.422;2023-05-31T01:13:38;94270.63;;;14.60;80.33
79085;BME280;68486;42.808;23.422;2023-05-31T01:16:14;94257.22;;;14.62;80.31
79085;BME280;68486;42.808;23.422;2023-05-31T01:18:57;94265.13;;;14.62;80.37
79085;BME280;68486;42.808;23.422;2023-05-31T01:21:57;94204.06;;;14.15;80.48
79085;BME280;68486;42.808;23.422;2023-05-31T01:24:22;94269.91;;;14.47;80.31
79085;BME280;68486;42.808;23.422;2023-05-31T01:26:51;94272.56;;;14.40;80.61
79085;BME280;68486;42.808;23.422;2023-05-31T01:29:21;94274.78;;;14.43;80.30
79085;BME280;68486;42.808;23.422;2023-05-31T01:31:47;94273.81;;;14.38;80.27
79085;BME280;68486;42.808;23.422;2023-05-31T01:34:13;94272.34;;;14.48;79.44
79085;BME280;68486;42.808;23.422;2023-05-31T01:36:39;94278.44;;;14.49;80.36
79085;BME280;68486;42.808;23.422;2023-05-31T01:39:05;94278.00;;;14.52;78.94
79085;BME280;68486;42.808;23.422;2023-05-31T01:41:41;94269.88;;;14.53;79.23
79085;BME280;68486;42.808;23.422;2023-05-31T01:44:09;94261.59;;;14.50;79.25
79085;BME280;68486;42.808;23.422;2023-05-31T01:46:36;94266.88;;;14.50;79.52
79085;BME280;68486;42.808;23.422;2023-05-31T01:49:02;94267.91;;;14.49;79.64
79085;BME280;68486;42.808;23.422;2023-05-31T01:51:29;94230.56;;;14.20;79.85
79085;BME280;68486;42.808;23.422;2023-05-31T01:53:58;94264.03;;;14.45;79.58
79085;BME280;68486;42.808;23.422;2023-05-31T01:56:25;94266.25;;;14.48;79.92
79085;BME280;68486;42.808;23.422;2023-05-31T01:58:54;94263.03;;;14.46;80.58
79085;BME280;68486;42.808;23.422;2023-05-31T02:01:20;94264.81;;;14.52;80.07
79085;BME280;68486;42.808;23.422;2023-05-31T02:03:48;94261.41;;;14.45;80.27
79085;BME280;68486;42.808;23.422;2023-05-31T02:06:14;94271.91;;;14.51;80.22
79085;BME280;68486;42.808;23.422;2023-05-31T02:08:39;94269.91;;;14.47;80.58
79085;BME280;68486;42.808;23.422;2023-05-31T02:11:06;94270.94;;;14.46;80.25
79085;BME280;68486;42.808;23.422;2023-05-31T02:13:32;94271.13;;;14.51;80.33
79085;BME280;68486;42.808;23.422;2023-05-31T02:15:57;94270.44;;;14.55;80.54
79085;BME280;68486;42.808;23.422;2023-05-31T02:18:24;94262.19;;;14.52;80.36
79085;BME280;68486;42.808;23.422;2023-05-31T02:20:52;94231.47;;;14.32;80.27
79085;BME280;68486;42.808;23.422;2023-05-31T02:23:18;94269.56;;;14.68;80.17
79085;BME280;68486;42.808;23.422;2023-05-31T02:25:47;94271.06;;;14.57;80.77
79085;BME280;68486;42.808;23.422;2023-05-31T02:28:13;94266.22;;;14.54;80.98
79085;BME280;68486;42.808;23.422;2023-05-31T02:30:39;94275.09;;;14.60;81.20
79085;BME280;68486;42.808;23.422;2023-05-31T02:33:06;94270.91;;;14.52;81.20
79085;BME280;68486;42.808;23.422;2023-05-31T02:35:32;94270.25;;;14.57;81.34
79085;BME280;68486;42.808;23.422;2023-05-31T02:37:58;94275.19;;;14.47;81.47
79085;BME280;68486;42.808;23.422;2023-05-31T02:40:24;94242.88;;;14.26;82.33
79085;BME280;68486;42.808;23.422;2023-05-31T02:42:50;94273.34;;;14.47;82.07
79085;BME280;68486;42.808;23.422;2023-05-31T02:45:15;94274.78;;;14.50;81.73
79085;BME280;68486;42.808;23.422;2023-05-31T02:47:41;94276.81;;;14.41;82.44
79085;BME280;68486;42.808;23.422;2023-05-31T02:50:08;94278.84;;;14.46;82.15
79085;BME280;68486;42.808;23.422;2023-05-31T02:52:37;94279.81;;;14.51;81.54
79085;BME280;68486;42.808;23.422;2023-05-31T02:55:03;94275.13;;;14.53;82.00
79085;BME280;68486;42.808;23.422;2023-05-31T02:57:29;94273.16;;;14.49;82.38
79085;BME280;68486;42.808;23.422;2023-05-31T02:59:57;94269.50;;;14.50;81.84
79085;BME280;68486;42.808;23.422;2023-05-31T03:02:22;94274.78;;;14.50;82.03
79085;BME280;68486;42.808;23.422;2023-05-31T03:04:49;94270.31;;;14.50;82.23
79085;BME280;68486;42.808;23.422;2023-05-31T03:07:16;94274.50;;;14.58;82.30
79085;BME280;68486;42.808;23.422;2023-05-31T03:09:41;94279.38;;;14.54;82.23
79085;BME280;68486;42.808;23.422;2023-05-31T03:12:07;94281.38;;;14.59;82.28
79085;BME280;68486;42.808;23.422;2023-05-31T03:14:32;94281.63;;;14.57;82.00
79085;BME280;68486;42.808;23.422;2023-05-31T03:16:58;94279.34;;;14.61;81.74
79085;BME280;68486;42.808;23.422;2023-05-31T03:19:23;94294.13;;;14.62;82.19
79085;BME280;68486;42.808;23.422;2023-05-31T03:21:49;94291.72;;;14.60;82.08
79085;BME280;68486;42.808;23.422;2023-05-31T03:24:14;94292.69;;;14.66;81.79
79085;BME280;68486;42.808;23.422;2023-05-31T03:26:40;94292.25;;;14.69;81.86
79085;BME280;68486;42.808;23.422;2023-05-31T03:29:05;94264.81;;;14.52;82.03
79085;BME280;68486;42.808;23.422;2023-05-31T03:31:31;94297.25;;;14.77;81.53
79085;BME280;68486;42.808;23.422;2023-05-31T03:33:57;94298.44;;;14.81;81.10
79085;BME280;68486;42.808;23.422;2023-05-31T03:36:22;94282.28;;;14.78;81.07
79085;BME280;68486;42.808;23.422;2023-05-31T03:38:48;94303.44;;;14.89;80.99
79085;BME280;68486;42.808;23.422;2023-05-31T03:41:13;94296.13;;;14.92;80.55
79085;BME280;68486;42.808;23.422;2023-05-31T03:43:39;94293.06;;;14.95;80.17
79085;BME280;68486;42.808;23.422;2023-05-31T03:46:04;94299.69;;;15.04;80.72
79085;BME280;68486;42.808;23.422;2023-05-31T03:48:30;94299.69;;;15.04;80.80
79085;BME280;68486;42.808;23.422;2023-05-31T03:50:58;94307.97;;;15.07;80.19
79085;BME280;68486;42.808;23.422;2023-05-31T03:53:24;94288.72;;;15.07;80.32
79085;BME280;68486;42.808;23.422;2023-05-31T03:55:50;94303.97;;;15.23;80.51
79085;BME280;68486;42.808;23.422;2023-05-31T03:58:16;94304.72;;;15.30;80.42
79085;BME280;68486;42.808;23.422;2023-05-31T04:00:41;94304.84;;;15.35;80.40
79085;BME280;68486;42.808;23.422;2023-05-31T04:03:07;94306.97;;;15.27;79.36
79085;BME280;68486;42.808;23.422;2023-05-31T04:05:33;94306.09;;;15.33;79.91
79085;BME280;68486;42.808;23.422;2023-05-31T04:07:58;94311.59;;;15.31;79.29
79085;BME280;68486;42.808;23.422;2023-05-31T04:10:24;94304.41;;;15.38;80.19
79085;BME280;68486;42.808;23.422;2023-05-31T04:12:50;94309.63;;;15.45;79.81
79085;BME280;68486;42.808;23.422;2023-05-31T04:15:15;94314.63;;;15.53;79.14
79085;BME280;68486;42.808;23.422;2023-05-31T04:17:40;94306.63;;;15.60;79.53
79085;BME280;68486;42.808;23.422;2023-05-31T04:20:06;94263.50;;;15.48;78.71
79085;BME280;68486;42.808;23.422;2023-05-31T04:22:33;94311.34;;;15.94;78.87
79085;BME280;68486;42.808;23.422;2023-05-31T04:24:59;94304.72;;;15.85;77.97
79085;BME280;68486;42.808;23.422;2023-05-31T04:27:24;94311.53;;;15.93;77.41
79085;BME280;68486;42.808;23.422;2023-05-31T04:29:51;94302.50;;;16.00;76.53
79085;BME280;68486;42.808;23.422;2023-05-31T04:32:16;94306.75;;;16.20;76.63
79085;BME280;68486;42.808;23.422;2023-05-31T04:34:42;94315.97;;;16.29;75.25
79085;BME280;68486;42.808;23.422;2023-05-31T04:37:08;94317.38;;;16.32;75.67
79085;BME280;68486;42.808;23.422;2023-05-31T04:39:34;94326.09;;;16.32;76.49
79085;BME280;68486;42.808;23.422;2023-05-31T04:42:00;94325.56;;;16.42;75.74
79085;BME280;68486;42.808;23.422;2023-05-31T04:44:25;94300.56;;;16.26;75.85
79085;BME280;68486;42.808;23.422;2023-05-31T04:46:51;94263.66;;;16.19;75.58
79085;BME280;68486;42.808;23.422;2023-05-31T04:49:16;94329.41;;;16.88;74.76
79085;BME280;68486;42.808;23.422;2023-05-31T04:51:42;94332.75;;;17.06;74.30
79085;BME280;68486;42.808;23.422;2023-05-31T04:54:07;94321.03;;;17.26;73.62
79085;BME280;68486;42.808;23.422;2023-05-31T04:56:33;94334.50;;;17.24;72.75
79085;BME280;68486;42.808;23.422;2023-05-31T04:58:58;94330.22;;;17.12;72.82
79085;BME280;68486;42.808;23.422;2023-05-31T05:01:24;94325.50;;;17.37;71.55
79085;BME280;68486;42.808;23.422;2023-05-31T05:03:50;94332.66;;;17.48;72.60
79085;BME280;68486;42.808;23.422;2023-05-31T05:06:16;94336.69;;;17.62;70.91
79085;BME280;68486;42.808;23.422;2023-05-31T05:08:43;94320.31;;;17.89;70.82
79085;BME280;68486;42.808;23.422;2023-05-31T05:11:09;94338.59;;;18.02;68.10
79085;BME280;68486;42.808;23.422;2023-05-31T05:13:35;94339.56;;;18.25;68.75
79085;BME280;68486;42.808;23.422;2023-05-31T05:16:01;94348.31;;;18.54;67.16
79085;BME280;68486;42.808;23.422;2023-05-31T05:18:27;94335.94;;;18.71;66.79
79085;BME280;68486;42.808;23.422;2023-05-31T05:20:53;94347.38;;;18.60;67.01
79085;BME280;68486;42.808;23.422;2023-05-31T05:23:18;94356.34;;;18.99;66.83
79085;BME280;68486;42.808;23.422;2023-05-31T05:25:44;94329.44;;;18.79;66.16
79085;BME280;68486;42.808;23.422;2023-05-31T05:28:09;94360.56;;;18.55;65.74
79085;BME280;68486;42.808;23.422;2023-05-31T05:30:35;94362.34;;;18.78;65.85
79085;BME280;68486;42.808;23.422;2023-05-31T05:33:00;94363.41;;;18.93;65.66
79085;BME280;68486;42.808;23.422;2023-05-31T05:35:26;94365.31;;;18.81;64.03
79085;BME280;68486;42.808;23.422;2023-05-31T05:37:51;94372.41;;;19.26;63.07
79085;BME280;68486;42.808;23.422;2023-05-31T05:40:18;94347.50;;;19.27;61.72
79085;BME280;68486;42.808;23.422;2023-05-31T05:42:44;94373.06;;;19.50;61.42
79085;BME280;68486;42.808;23.422;2023-05-31T05:45:10;94367.69;;;19.45;61.35
79085;BME280;68486;42.808;23.422;2023-05-31T05:47:35;94373.88;;;19.50;63.62
79085;BME280;68486;42.808;23.422;2023-05-31T05:50:01;94373.81;;;19.62;62.73
79085;BME280;68486;42.808;23.422;2023-05-31T05:52:27;94371.72;;;20.03;61.48
79085;BME280;68486;42.808;23.422;2023-05-31T05:54:52;94378.78;;;20.14;61.62
79085;BME280;68486;42.808;23.422;2023-05-31T05:57:18;94379.09;;;20.39;60.12
79085;BME280;68486;42.808;23.422;2023-05-31T05:59:44;94368.19;;;20.19;59.23
79085;BME280;68486;42.808;23.422;2023-05-31T06:02:10;94375.69;;;20.66;58.48
79085;BME280;68486;42.808;23.422;2023-05-31T06:04:36;94377.50;;;20.87;61.09
79085;BME280;68486;42.808;23.422;2023-05-31T06:07:02;94374.53;;;20.84;58.65
79085;BME280;68486;42.808;23.422;2023-05-31T06:09:27;94376.41;;;21.10;59.63
79085;BME280;68486;42.808;23.422;2023-05-31T06:11:53;94376.69;;;21.14;58.36
79085;BME280;68486;42.808;23.422;2023-05-31T06:14:18;94379.81;;;21.06;57.44
79085;BME280;68486;42.808;23.422;2023-05-31T06:16:44;94379.69;;;20.25;64.25
79085;BME280;68486;42.808;23.422;2023-05-31T06:19:09;94375.94;;;20.43;64.62
79085;BME280;68486;42.808;23.422;2023-05-31T06:21:35;94376.34;;;20.13;64.46
79085;BME280;68486;42.808;23.422;2023-05-31T06:24:03;94389.25;;;20.64;64.10
79085;BME280;68486;42.808;23.422;2023-05-31T06:26:28;94381.47;;;20.58;64.41
79085;BME280;68486;42.808;23.422;2023-05-31T06:28:54;94374.00;;;21.09;63.04
79085;BME280;68486;42.808;23.422;2023-05-31T06:31:19;94381.72;;;21.37;62.32
79085;BME280;68486;42.808;23.422;2023-05-31T06:33:45;94373.00;;;21.20;61.04
79085;BME280;68486;42.808;23.422;2023-05-31T06:36:10;94382.28;;;22.19;59.29
79085;BME280;68486;42.808;23.422;2023-05-31T06:38:35;94382.88;;;22.36;57.80
79085;BME280;68486;42.808;23.422;2023-05-31T06:41:01;94381.06;;;22.52;57.24
79085;BME280;68486;42.808;23.422;2023-05-31T06:43:26;94378.09;;;22.43;56.87
79085;BME280;68486;42.808;23.422;2023-05-31T06:45:52;94382.38;;;22.39;56.44
79085;BME280;68486;42.808;23.422;2023-05-31T06:48:17;94373.16;;;22.82;55.03
79085;BME280;68486;42.808;23.422;2023-05-31T06:50:43;94379.13;;;23.15;53.29
79085;BME280;68486;42.808;23.422;2023-05-31T06:53:09;94376.72;;;23.75;54.55
79085;BME280;68486;42.808;23.422;2023-05-31T06:55:38;94378.31;;;23.15;54.68
79085;BME280;68486;42.808;23.422;2023-05-31T06:58:03;94382.00;;;24.10;51.58
79085;BME280;68486;42.808;23.422;2023-05-31T07:00:29;94375.66;;;23.20;54.41
79085;BME280;68486;42.808;23.422;2023-05-31T07:02:54;94383.88;;;22.20;58.03
79085;BME280;68486;42.808;23.422;2023-05-31T07:05:20;94383.25;;;22.60;57.03
79085;BME280;68486;42.808;23.422;2023-05-31T07:07:46;94388.97;;;22.94;56.84
79085;BME280;68486;42.808;23.422;2023-05-31T07:10:12;94383.09;;;23.07;56.08
79085;BME280;68486;42.808;23.422;2023-05-31T07:12:38;94382.69;;;22.06;58.39
79085;BME280;68486;42.808;23.422;2023-05-31T07:15:04;94390.31;;;22.24;56.70
79085;BME280;68486;42.808;23.422;2023-05-31T07:17:29;94383.97;;;22.40;56.89
79085;BME280;68486;42.808;23.422;2023-05-31T07:19:55;94388.78;;;23.62;54.55
79085;BME280;68486;42.808;23.422;2023-05-31T07:22:20;94394.81;;;24.29;53.42
79085;BME280;68486;42.808;23.422;2023-05-31T07:24:47;94391.16;;;23.48;54.27
79085;BME280;68486;42.808;23.422;2023-05-31T07:27:13;94390.63;;;23.26;53.22
79085;BME280;68486;42.808;23.422;2023-05-31T07:29:38;94392.28;;;22.59;56.63
79085;BME280;68486;42.808;23.422;2023-05-31T07:32:04;94396.53;;;23.74;54.87
79085;BME280;68486;42.808;23.422;2023-05-31T07:34:29;94393.19;;;22.85;55.08
79085;BME280;68486;42.808;23.422;2023-05-31T07:36:55;94390.31;;;22.92;55.89
79085;BME280;68486;42.808;23.422;2023-05-31T07:39:23;94383.16;;;23.74;51.18
79085;BME280;68486;42.808;23.422;2023-05-31T07:41:49;94385.03;;;23.73;52.95
79085;BME280;68486;42.808;23.422;2023-05-31T07:44:14;94392.09;;;24.49;50.68
79085;BME280;68486;42.808;23.422;2023-05-31T07:46:43;94388.19;;;23.96;50.64
79085;BME280;68486;42.808;23.422;2023-05-31T07:49:09;94378.78;;;24.24;48.41
79085;BME280;68486;42.808;23.422;2023-05-31T07:51:34;94373.69;;;24.92;51.35
79085;BME280;68486;42.808;23.422;2023-05-31T07:54:01;94391.81;;;25.10;48.25
79085;BME280;68486;42.808;23.422;2023-05-31T07:56:27;94388.41;;;24.89;48.56
79085;BME280;68486;42.808;23.422;2023-05-31T07:58:52;94392.91;;;24.50;48.99
79085;BME280;68486;42.808;23.422;2023-05-31T08:01:18;94347.88;;;25.45;49.24
79085;BME280;68486;42.808;23.422;2023-05-31T08:03:43;94386.13;;;26.67;43.82
79085;BME280;68486;42.808;23.422;2023-05-31T08:06:09;94381.31;;;27.07;42.52
79085;BME280;68486;42.808;23.422;2023-05-31T08:08:34;94360.38;;;27.23;43.20
79085;BME280;68486;42.808;23.422;2023-05-31T08:11:00;94373.91;;;26.56;40.45
79085;BME280;68486;42.808;23.422;2023-05-31T08:13:27;94376.22;;;27.05;38.95
79085;BME280;68486;42.808;23.422;2023-05-31T08:15:54;94377.06;;;27.01;41.51
79085;BME280;68486;42.808;23.422;2023-05-31T08:18:19;94379.50;;;27.21;42.03
79085;BME280;68486;42.808;23.422;2023-05-31T08:20:45;94369.34;;;26.75;42.53
79085;BME280;68486;42.808;23.422;2023-05-31T08:23:20;94349.72;;;27.69;40.39
79085;BME280;68486;42.808;23.422;2023-05-31T08:25:46;94384.97;;;28.00;37.57
79085;BME280;68486;42.808;23.422;2023-05-31T08:28:11;94376.25;;;27.57;38.14
79085;BME280;68486;42.808;23.422;2023-05-31T08:30:37;94374.59;;;27.42;39.76
79085;BME280;68486;42.808;23.422;2023-05-31T08:33:02;94380.78;;;27.42;37.44
79085;BME280;68486;42.808;23.422;2023-05-31T08:35:27;94379.00;;;26.04;40.59
79085;BME280;68486;42.808;23.422;2023-05-31T08:37:53;94318.47;;;25.35;41.10
79085;BME280;68486;42.808;23.422;2023-05-31T08:40:20;94348.56;;;25.56;40.96
79085;BME280;68486;42.808;23.422;2023-05-31T08:42:57;94366.22;;;26.20;42.65
79085;BME280;68486;42.808;23.422;2023-05-31T08:45:26;94370.91;;;26.33;40.00
79085;BME280;68486;42.808;23.422;2023-05-31T08:48:14;94372.59;;;27.15;38.71
79085;BME280;68486;42.808;23.422;2023-05-31T08:50:42;94364.69;;;27.56;39.59
79085;BME280;68486;42.808;23.422;2023-05-31T08:53:09;94355.00;;;27.74;37.32
79085;BME280;68486;42.808;23.422;2023-05-31T08:55:35;94358.75;;;28.06;33.54
79085;BME280;68486;42.808;23.422;2023-05-31T08:58:02;94355.72;;;27.28;35.42
79085;BME280;68486;42.808;23.422;2023-05-31T09:00:28;94341.59;;;28.01;35.26
79085;BME280;68486;42.808;23.422;2023-05-31T09:02:54;94345.81;;;29.26;33.38
79085;BME280;68486;42.808;23.422;2023-05-31T09:05:20;94354.34;;;29.42;32.48
79085;BME280;68486;42.808;23.422;2023-05-31T09:07:45;94340.28;;;28.81;33.00
79085;BME280;68486;42.808;23.422;2023-05-31T09:10:12;94337.78;;;28.35;36.62
79085;BME280;68486;42.808;23.422;2023-05-31T09:12:40;94332.94;;;28.05;34.96
79085;BME280;68486;42.808;23.422;2023-05-31T09:15:06;94339.69;;;27.88;36.11
79085;BME280;68486;42.808;23.422;2023-05-31T09:17:33;94326.25;;;27.56;35.42
79085;BME280;68486;42.808;23.422;2023-05-31T09:19:59;94339.97;;;26.84;32.98
79085;BME280;68486;42.808;23.422;2023-05-31T09:22:25;94331.34;;;28.03;33.20
79085;BME280;68486;42.808;23.422;2023-05-31T09:24:59;94327.34;;;28.15;36.19
79085;BME280;68486;42.808;23.422;2023-05-31T09:27:25;94328.75;;;27.66;35.71
79085;BME280;68486;42.808;23.422;2023-05-31T09:29:52;94322.56;;;28.53;33.62
79085;BME280;68486;42.808;23.422;2023-05-31T09:32:18;94326.25;;;29.21;33.64
79085;BME280;68486;42.808;23.422;2023-05-31T09:34:44;94312.34;;;29.05;33.45
79085;BME280;68486;42.808;23.422;2023-05-31T09:37:20;94301.25;;;29.29;34.35
79085;BME280;68486;42.808;23.422;2023-05-31T09:39:56;94309.38;;;29.15;36.30
79085;BME280;68486;42.808;23.422;2023-05-31T09:42:24;94302.16;;;28.88;33.54
79085;BME280;68486;42.808;23.422;2023-05-31T09:44:50;94300.81;;;29.35;34.14
79085;BME280;68486;42.808;23.422;2023-05-31T09:47:16;94301.78;;;29.39;34.24
79085;BME280;68486;42.808;23.422;2023-05-31T09:49:43;94300.56;;;29.01;33.17
79085;BME280;68486;42.808;23.422;2023-05-31T09:52:13;94292.78;;;29.44;31.84
79085;BME280;68486;42.808;23.422;2023-05-31T09:54:38;94302.47;;;29.67;29.86
79085;BME280;68486;42.808;23.422;2023-05-31T09:57:05;94280.28;;;29.48;30.65
79085;BME280;68486;42.808;23.422;2023-05-31T09:59:33;94295.06;;;30.61;32.03
79085;BME280;68486;42.808;23.422;2023-05-31T10:01:59;94265.34;;;29.20;30.43
79085;BME280;68486;42.808;23.422;2023-05-31T10:04:25;94292.69;;;29.27;33.52
79085;BME280;68486;42.808;23.422;2023-05-31T10:06:50;94284.69;;;29.44;31.60
79085;BME280;68486;42.808;23.422;2023-05-31T10:09:16;94290.34;;;29.56;30.58
79085;BME280;68486;42.808;23.422;2023-05-31T10:11:46;94276.72;;;29.61;31.32
79085;BME280;68486;42.808;23.422;2023-05-31T10:14:24;94275.00;;;30.05;29.43
79085;BME280;68486;42.808;23.422;2023-05-31T10:16:58;94263.97;;;29.53;30.07
79085;BME280;68486;42.808;23.422;2023-05-31T10:19:54;94268.13;;;29.59;29.78
79085;BME280;68486;42.808;23.422;2023-05-31T10:22:17;94265.06;;;31.06;29.34
79085;BME280;68486;42.808;23.422;2023-05-31T10:25:03;94264.41;;;30.92;29.00
79085;BME280;68486;42.808;23.422;2023-05-31T10:27:39;94264.84;;;30.02;28.80
79085;BME280;68486;42.808;23.422;2023-05-31T10:30:09;94265.81;;;30.06;28.60
79085;BME280;68486;42.808;23.422;2023-05-31T10:32:42;94264.16;;;29.88;29.66
79085;BME280;68486;42.808;23.422;2023-05-31T10:35:11;94260.88;;;30.00;29.74
79085;BME280;68486;42.808;23.422;2023-05-31T10:37:39;94270.16;;;30.82;28.72
79085;BME280;68486;42.808;23.422;2023-05-31T10:40:15;94267.78;;;31.23;26.89
79085;BME280;68486;42.808;23.422;2023-05-31T10:45:43;94245.94;;;30.51;29.50
79085;BME280;68486;42.808;23.422;2023-05-31T10:51:01;94269.91;;;29.95;29.40
79085;BME280;68486;42.808;23.422;2023-05-31T10:53:30;94271.50;;;30.36;30.62
79085;BME280;68486;42.808;23.422;2023-05-31T10:56:07;94260.91;;;30.08;29.88
79085;BME280;68486;42.808;23.422;2023-05-31T10:58:36;94225.16;;;29.40;28.25
79085;BME280;68486;42.808;23.422;2023-05-31T11:01:13;94244.59;;;30.13;28.74
79085;BME280;68486;42.808;23.422;2023-05-31T11:03:50;94255.88;;;30.24;29.25
79085;BME280;68486;42.808;23.422;2023-05-31T11:06:25;94237.34;;;29.07;30.27
79085;BME280;68486;42.808;23.422;2023-05-31T11:09:12;94259.53;;;28.90;30.11
79085;BME280;68486;42.808;23.422;2023-05-31T11:14:08;94248.59;;;30.33;27.53
79085;BME280;68486;42.808;23.422;2023-05-31T11:19:35;94253.03;;;31.85;27.52
79085;BME280;68486;42.808;23.422;2023-05-31T11:24:36;94243.00;;;32.15;28.25
79085;BME280;68486;42.808;23.422;2023-05-31T11:27:03;94230.63;;;33.27;23.58
79085;BME280;68486;42.808;23.422;2023-05-31T11:32:14;94253.53;;;30.40;28.65
79085;BME280;68486;42.808;23.422;2023-05-31T11:37:16;94241.69;;;31.27;26.61
79085;BME280;68486;42.808;23.422;2023-05-31T11:39:44;94240.00;;;32.17;27.37
79085;BME280;68486;42.808;23.422;2023-05-31T11:42:14;94237.28;;;29.83;29.31
79085;BME280;68486;42.808;23.422;2023-05-31T11:44:44;94194.31;;;29.33;30.93
79085;BME280;68486;42.808;23.422;2023-05-31T11:47:16;94232.59;;;29.57;30.69
79085;BME280;68486;42.808;23.422;2023-05-31T11:49:42;94226.78;;;28.61;31.41
79085;BME280;68486;42.808;23.422;2023-05-31T11:52:07;94218.09;;;29.00;33.15
79085;BME280;68486;42.808;23.422;2023-05-31T11:54:33;94216.81;;;29.20;31.31
79085;BME280;68486;42.808;23.422;2023-05-31T11:57:04;94216.28;;;28.73;32.13
79085;BME280;68486;42.808;23.422;2023-05-31T11:59:35;94220.94;;;28.81;31.66
79085;BME280;68486;42.808;23.422;2023-05-31T12:02:03;94234.00;;;28.24;33.26
79085;BME280;68486;42.808;23.422;2023-05-31T12:04:49;94219.03;;;28.81;32.01
79085;BME280;68486;42.808;23.422;2023-05-31T12:07:16;94226.19;;;29.53;31.86
79085;BME280;68486;42.808;23.422;2023-05-31T12:09:45;94198.13;;;29.32;31.59
79085;BME280;68486;42.808;23.422;2023-05-31T12:12:11;94221.63;;;30.51;31.98
79085;BME280;68486;42.808;23.422;2023-05-31T12:14:36;94221.59;;;30.42;31.96
79085;BME280;68486;42.808;23.422;2023-05-31T12:17:03;94215.78;;;29.38;33.34
79085;BME280;68486;42.808;23.422;2023-05-31T12:19:30;94220.25;;;28.75;31.92
79085;BME280;68486;42.808;23.422;2023-05-31T12:21:56;94220.91;;;28.95;33.82
79085;BME280;68486;42.808;23.422;2023-05-31T12:24:22;94229.25;;;28.21;32.46
79085;BME280;68486;42.808;23.422;2023-05-31T12:26:47;94220.88;;;28.36;32.34
79085;BME280;68486;42.808;23.422;2023-05-31T12:29:17;94212.06;;;28.44;33.29
79085;BME280;68486;42.808;23.422;2023-05-31T12:31:42;94187.66;;;28.27;33.16
79085;BME280;68486;42.808;23.422;2023-05-31T12:34:10;94209.47;;;28.39;32.61
79085;BME280;68486;42.808;23.422;2023-05-31T12:36:44;94218.09;;;28.14;32.56
79085;BME280;68486;42.808;23.422;2023-05-31T12:39:10;94212.72;;;27.72;32.43
79085;BME280;68486;42.808;23.422;2023-05-31T12:41:37;94216.88;;;28.47;31.53
79085;BME280;68486;42.808;23.422;2023-05-31T12:44:03;94207.44;;;26.88;34.62
79085;BME280;68486;42.808;23.422;2023-05-31T12:46:28;94202.50;;;26.96;34.37
79085;BME280;68486;42.808;23.422;2023-05-31T12:49:31;94209.44;;;27.29;35.04
79085;BME280;68486;42.808;23.422;2023-05-31T12:52:04;94208.56;;;26.50;33.41
79085;BME280;68486;42.808;23.422;2023-05-31T12:54:33;94184.09;;;27.03;33.73
79085;BME280;68486;42.808;23.422;2023-05-31T12:57:00;94211.00;;;26.27;33.72
79085;BME280;68486;42.808;23.422;2023-05-31T12:59:26;94196.84;;;26.22;34.42
79085;BME280;68486;42.808;23.422;2023-05-31T13:01:52;94198.97;;;26.44;36.57
79085;BME280;68486;42.808;23.422;2023-05-31T13:04:17;94198.25;;;26.57;34.70
79085;BME280;68486;42.808;23.422;2023-05-31T13:06:43;94208.13;;;26.00;35.24
79085;BME280;68486;42.808;23.422;2023-05-31T13:09:08;94200.69;;;25.73;33.56